C2004 PMDY-PHJR

Flight info

Callsign C2004
Flight time 3h 45m
Altitude 12000
Route VFR EAST
Aircraft C30J/M-VGDW/C

Departure

Time 2026-05-05 06:08
Airport Henderson Field (PMDY)

Arrival

Time 2026-05-05 09:53
Airport Kalaeloa Airport (PHJR)
Time Latitude Longitude Altitude Speed Heading
2026-05-05 05:50 28.20988 -177.37958 17 ft 0 kts 65°
2026-05-05 06:00 28.20988 -177.37960 17 ft 3 kts 65°
2026-05-05 06:00 28.20983 -177.37977 17 ft 2 kts 108°
2026-05-05 06:00 28.20985 -177.37981 17 ft 0 kts 146°
2026-05-05 06:01 28.20979 -177.37979 17 ft 3 kts 180°
2026-05-05 06:01 28.20916 -177.37976 17 ft 12 kts 163°
2026-05-05 06:01 28.20879 -177.37970 18 ft 5 kts 202°
2026-05-05 06:01 28.20860 -177.37994 18 ft 9 kts 242°
2026-05-05 06:02 28.20824 -177.38080 17 ft 13 kts 244°
2026-05-05 06:02 28.20789 -177.38163 19 ft 9 kts 244°
2026-05-05 06:02 28.20760 -177.38235 18 ft 6 kts 247°
2026-05-05 06:02 28.20724 -177.38308 17 ft 5 kts 206°
2026-05-05 06:03 28.20649 -177.38288 17 ft 19 kts 158°
2026-05-05 06:03 28.20526 -177.38235 17 ft 19 kts 159°
2026-05-05 06:03 28.20368 -177.38179 16 ft 21 kts 160°
2026-05-05 06:03 28.20228 -177.38110 11 ft 15 kts 161°
2026-05-05 06:04 28.20171 -177.38109 9 ft 5 kts 219°
2026-05-05 06:04 28.20147 -177.38161 10 ft 12 kts 249°
2026-05-05 06:04 28.20109 -177.38278 10 ft 19 kts 250°
2026-05-05 06:04 28.20056 -177.38436 11 ft 22 kts 248°
2026-05-05 06:05 28.19998 -177.38608 15 ft 24 kts 248°
2026-05-05 06:05 28.19933 -177.38795 13 ft 26 kts 248°
2026-05-05 06:05 28.19867 -177.38989 16 ft 27 kts 250°
2026-05-05 06:05 28.19814 -177.39150 14 ft 14 kts 249°
2026-05-05 06:06 28.19787 -177.39212 14 ft 1 kts 198°
2026-05-05 06:06 28.19786 -177.39202 15 ft 4 kts 63°
2026-05-05 06:06 28.19811 -177.39132 18 ft 13 kts 68°
2026-05-05 06:06 28.19813 -177.39127 14 ft 0 kts 68°
2026-05-05 06:07 28.19827 -177.39086 14 ft 23 kts 68°
2026-05-05 06:07 28.19971 -177.38670 13 ft 92 kts 70°
2026-05-05 06:07 28.20271 -177.37820 106 ft 127 kts 66°
2026-05-05 06:08 28.20596 -177.36847 411 ft 140 kts 68°
2026-05-05 06:08 28.20965 -177.35762 804 ft 151 kts 66°
2026-05-05 06:08 28.21370 -177.34632 1276 ft 158 kts 73°
2026-05-05 06:08 28.21351 -177.33403 1735 ft 163 kts 115°
2026-05-05 06:09 28.20492 -177.32602 2033 ft 171 kts 168°
2026-05-05 06:09 28.19284 -177.32451 2387 ft 181 kts 175°
2026-05-05 06:09 28.18088 -177.31901 1688 ft 196 kts 154°
2026-05-05 06:09 28.16774 -177.30787 902 ft 222 kts 148°
2026-05-05 06:10 28.15518 -177.30288 1228 ft 182 kts 181°
2026-05-05 06:10 28.14351 -177.30618 1106 ft 166 kts 214°
2026-05-05 06:10 28.13529 -177.31468 1070 ft 159 kts 235°
2026-05-05 06:10 28.13036 -177.32557 1036 ft 152 kts 256°
2026-05-05 06:11 28.12932 -177.33724 999 ft 149 kts 272°
2026-05-05 06:11 28.13021 -177.34902 873 ft 152 kts 277°
2026-05-05 06:11 28.13171 -177.36073 833 ft 150 kts 278°
2026-05-05 06:11 28.13355 -177.37242 741 ft 150 kts 281°
2026-05-05 06:12 28.13634 -177.38332 733 ft 141 kts 291°
2026-05-05 06:12 28.14111 -177.39295 640 ft 138 kts 300°
2026-05-05 06:12 28.14673 -177.40172 542 ft 138 kts 313°
2026-05-05 06:12 28.15467 -177.40713 480 ft 132 kts 341°
2026-05-05 06:13 28.16374 -177.40756 361 ft 132 kts
2026-05-05 06:13 28.17267 -177.40657 367 ft 129 kts
2026-05-05 06:13 28.18166 -177.40497 405 ft 134 kts 11°
2026-05-05 06:13 28.19045 -177.40091 362 ft 138 kts 27°
2026-05-05 06:14 28.19715 -177.39376 88 ft 132 kts 63°
2026-05-05 06:14 28.20042 -177.38479 13 ft 110 kts 67°
2026-05-05 06:14 28.20186 -177.38046 10 ft 20 kts 69°
2026-05-05 06:14 28.20201 -177.38005 10 ft 1 kts 47°
2026-05-05 06:15 28.20202 -177.38005 9 ft 0 kts 21°
2026-05-05 06:15 28.20206 -177.38005 10 ft 1 kts 354°
2026-05-05 06:15 28.20207 -177.38009 10 ft 1 kts 277°
2026-05-05 06:15 28.20197 -177.38034 9 ft 16 kts 245°
2026-05-05 06:16 28.20150 -177.38172 10 ft 20 kts 251°
2026-05-05 06:16 28.20102 -177.38326 11 ft 21 kts 248°
2026-05-05 06:16 28.20051 -177.38489 12 ft 22 kts 253°
2026-05-05 06:16 28.20001 -177.38653 14 ft 22 kts 248°
2026-05-05 06:17 28.19938 -177.38811 14 ft 22 kts 245°
2026-05-05 06:17 28.19878 -177.38970 16 ft 23 kts 247°
2026-05-05 06:17 28.19818 -177.39143 14 ft 24 kts 250°
2026-05-05 06:17 28.19793 -177.39212 15 ft 1 kts 187°
2026-05-05 06:18 28.19787 -177.39202 15 ft 4 kts 95°
2026-05-05 06:18 28.19799 -177.39161 15 ft 19 kts 69°
2026-05-05 06:18 28.19914 -177.38833 17 ft 78 kts 68°
2026-05-05 06:18 28.20209 -177.38001 167 ft 133 kts 66°
2026-05-05 06:19 28.20584 -177.36946 538 ft 152 kts 73°
2026-05-05 06:19 28.20510 -177.35772 1123 ft 152 kts 112°
2026-05-05 06:19 28.20027 -177.34721 1695 ft 148 kts 125°
2026-05-05 06:19 28.19421 -177.33713 2282 ft 161 kts 127°
2026-05-05 06:20 28.18740 -177.32598 2701 ft 188 kts 126°
2026-05-05 06:20 28.18005 -177.31278 2760 ft 203 kts 122°
2026-05-05 06:20 28.17325 -177.29883 2730 ft 200 kts 119°
2026-05-05 06:20 28.16709 -177.28480 2721 ft 198 kts 117°
2026-05-05 06:21 28.16130 -177.27063 2717 ft 199 kts 115°
2026-05-05 06:21 28.15572 -177.25628 2723 ft 199 kts 115°
2026-05-05 06:21 28.15021 -177.24180 2663 ft 198 kts 114°
2026-05-05 06:21 28.14498 -177.22760 2875 ft 197 kts 114°
2026-05-05 06:22 28.13952 -177.21260 3115 ft 214 kts 113°
2026-05-05 06:22 28.13377 -177.19664 3410 ft 223 kts 113°
2026-05-05 06:22 28.12797 -177.18035 3724 ft 223 kts 113°
2026-05-05 06:22 28.12213 -177.16395 4000 ft 225 kts 113°
2026-05-05 06:23 28.11625 -177.14751 4272 ft 225 kts 113°
2026-05-05 06:23 28.11036 -177.13103 4552 ft 226 kts 113°
2026-05-05 06:23 28.10447 -177.11456 4826 ft 226 kts 113°
2026-05-05 06:23 28.09856 -177.09795 5086 ft 228 kts 113°
2026-05-05 06:24 28.09263 -177.08133 5358 ft 228 kts 113°
2026-05-05 06:24 28.08664 -177.06451 5638 ft 232 kts 113°
2026-05-05 06:24 28.08058 -177.04761 5925 ft 233 kts 113°
2026-05-05 06:24 28.07436 -177.03024 6244 ft 247 kts 113°
2026-05-05 06:25 28.06769 -177.01167 6633 ft 261 kts 113°
2026-05-05 06:25 28.06074 -176.99230 7066 ft 270 kts 113°
2026-05-05 06:25 28.05360 -176.97240 7519 ft 276 kts 113°
2026-05-05 06:25 28.04632 -176.95214 8007 ft 280 kts 113°
2026-05-05 06:26 28.03895 -176.93164 8496 ft 283 kts 113°
2026-05-05 06:26 28.03151 -176.91098 8986 ft 284 kts 113°
2026-05-05 06:26 28.02407 -176.89033 9477 ft 286 kts 113°
2026-05-05 06:26 28.01653 -176.86946 9969 ft 287 kts 113°
2026-05-05 06:27 28.00898 -176.84852 10461 ft 288 kts 113°
2026-05-05 06:27 27.99384 -176.80659 11435 ft 289 kts 113°
2026-05-05 06:27 27.98631 -176.78584 11913 ft 288 kts 113°
2026-05-05 06:28 27.97871 -176.76484 12374 ft 289 kts 113°
2026-05-05 06:28 27.97104 -176.74371 12700 ft 295 kts 113°
2026-05-05 06:28 27.96309 -176.72178 12753 ft 308 kts 113°
2026-05-05 06:28 27.95482 -176.69899 12752 ft 318 kts 113°
2026-05-05 06:29 27.94636 -176.67571 12745 ft 321 kts 113°
2026-05-05 06:29 27.93791 -176.65246 12745 ft 318 kts 113°
2026-05-05 06:29 27.92953 -176.62943 12743 ft 316 kts 113°
2026-05-05 06:29 27.92116 -176.60645 12747 ft 316 kts 113°
2026-05-05 06:30 27.91275 -176.58341 12743 ft 317 kts 113°
2026-05-05 06:30 27.90422 -176.56001 12756 ft 326 kts 113°
2026-05-05 06:30 27.89552 -176.53614 12754 ft 332 kts 113°
2026-05-05 06:30 27.88666 -176.51188 12746 ft 336 kts 113°
2026-05-05 06:31 27.87768 -176.48732 12746 ft 340 kts 113°
2026-05-05 06:31 27.86861 -176.46254 12749 ft 342 kts 113°
2026-05-05 06:31 27.85951 -176.43767 12746 ft 344 kts 113°
2026-05-05 06:31 27.85033 -176.41262 12748 ft 346 kts 113°
2026-05-05 06:32 27.84112 -176.38750 12742 ft 346 kts 113°
2026-05-05 06:32 27.83189 -176.36233 12748 ft 347 kts 113°
2026-05-05 06:32 27.82267 -176.33720 12741 ft 347 kts 113°
2026-05-05 06:32 27.81339 -176.31198 12744 ft 347 kts 113°
2026-05-05 06:33 27.80413 -176.28677 12746 ft 348 kts 113°
2026-05-05 06:33 27.79486 -176.26156 12747 ft 348 kts 113°
2026-05-05 06:33 27.78555 -176.23627 12747 ft 348 kts 113°
2026-05-05 06:33 27.77623 -176.21100 12748 ft 348 kts 113°
2026-05-05 06:34 27.76706 -176.18613 12747 ft 348 kts 113°
2026-05-05 06:34 27.75775 -176.16091 12747 ft 348 kts 113°
2026-05-05 06:34 27.74845 -176.13572 12743 ft 348 kts 113°
2026-05-05 06:34 27.73913 -176.11048 12745 ft 348 kts 113°
2026-05-05 06:35 27.72981 -176.08530 12747 ft 348 kts 113°
2026-05-05 06:35 27.72049 -176.06011 12746 ft 348 kts 113°
2026-05-05 06:35 27.71116 -176.03491 12744 ft 348 kts 113°
2026-05-05 06:35 27.70182 -176.00970 12738 ft 348 kts 113°
2026-05-05 06:36 27.69248 -175.98451 12745 ft 348 kts 113°
2026-05-05 06:36 27.68313 -175.95932 12747 ft 348 kts 113°
2026-05-05 06:36 27.67378 -175.93414 12744 ft 348 kts 113°
2026-05-05 06:36 27.66441 -175.90892 12745 ft 348 kts 113°
2026-05-05 06:37 27.65504 -175.88374 12745 ft 348 kts 113°
2026-05-05 06:37 27.64566 -175.85852 12745 ft 348 kts 113°
2026-05-05 06:37 27.63629 -175.83336 12744 ft 348 kts 113°
2026-05-05 06:37 27.62691 -175.80816 12746 ft 348 kts 114°
2026-05-05 06:38 27.61752 -175.78300 12744 ft 348 kts 114°
2026-05-05 06:38 27.60812 -175.75782 12743 ft 348 kts 114°
2026-05-05 06:38 27.59873 -175.73268 12744 ft 348 kts 114°
2026-05-05 06:38 27.58933 -175.70750 12743 ft 348 kts 114°
2026-05-05 06:39 27.57994 -175.68239 12744 ft 348 kts 114°
2026-05-05 06:39 27.57054 -175.65726 12744 ft 348 kts 114°
2026-05-05 06:39 27.56115 -175.63215 12746 ft 348 kts 114°
2026-05-05 06:39 27.55172 -175.60700 12744 ft 348 kts 114°
2026-05-05 06:40 27.54230 -175.58188 12744 ft 348 kts 114°
2026-05-05 06:40 27.53289 -175.55681 12748 ft 348 kts 114°
2026-05-05 06:40 27.52345 -175.53165 12747 ft 348 kts 114°
2026-05-05 06:40 27.51403 -175.50657 12744 ft 348 kts 114°
2026-05-05 06:41 27.50459 -175.48147 12744 ft 348 kts 114°
2026-05-05 06:41 27.49514 -175.45636 12747 ft 348 kts 114°
2026-05-05 06:41 27.48583 -175.43159 12744 ft 348 kts 114°
2026-05-05 06:41 27.47634 -175.40642 12747 ft 348 kts 114°
2026-05-05 06:42 27.46688 -175.38131 12742 ft 348 kts 114°
2026-05-05 06:42 27.45743 -175.35625 12744 ft 348 kts 114°
2026-05-05 06:42 27.44795 -175.33114 12744 ft 348 kts 114°
2026-05-05 06:42 27.43846 -175.30602 12746 ft 348 kts 114°
2026-05-05 06:43 27.42898 -175.28094 12743 ft 348 kts 114°
2026-05-05 06:43 27.41950 -175.25585 12746 ft 348 kts 114°
2026-05-05 06:43 27.41002 -175.23080 12746 ft 348 kts 114°
2026-05-05 06:43 27.40065 -175.20605 12745 ft 348 kts 114°
2026-05-05 06:44 27.39115 -175.18099 12746 ft 348 kts 114°
2026-05-05 06:44 27.38163 -175.15591 12745 ft 348 kts 114°
2026-05-05 06:44 27.37212 -175.13083 12749 ft 348 kts 114°
2026-05-05 06:44 27.36261 -175.10577 12745 ft 348 kts 114°
2026-05-05 06:45 27.35308 -175.08069 12744 ft 348 kts 114°
2026-05-05 06:45 27.34357 -175.05569 12744 ft 348 kts 114°
2026-05-05 06:45 27.33416 -175.03093 12748 ft 348 kts 114°
2026-05-05 06:45 27.32464 -175.00593 12746 ft 348 kts 114°
2026-05-05 06:46 27.31510 -174.98087 12745 ft 348 kts 114°
2026-05-05 06:46 27.30557 -174.95587 12743 ft 348 kts 114°
2026-05-05 06:46 27.29603 -174.93084 12748 ft 348 kts 114°
2026-05-05 06:46 27.28648 -174.90581 12746 ft 348 kts 114°
2026-05-05 06:47 27.27690 -174.88074 12747 ft 348 kts 114°
2026-05-05 06:47 27.27059 -174.86421 12739 ft 348 kts 114°
2026-05-05 06:47 27.26103 -174.83919 12744 ft 348 kts 114°
2026-05-05 06:47 27.25145 -174.81414 12740 ft 348 kts 114°
2026-05-05 06:48 27.24188 -174.78917 12745 ft 348 kts 114°
2026-05-05 06:48 27.23229 -174.76414 12744 ft 348 kts 114°
2026-05-05 06:48 27.22271 -174.73913 12746 ft 348 kts 114°
2026-05-05 06:48 27.21312 -174.71413 12746 ft 349 kts 114°
2026-05-05 06:49 27.20353 -174.68916 12744 ft 349 kts 114°
2026-05-05 06:49 27.19394 -174.66416 12746 ft 349 kts 114°
2026-05-05 06:49 27.18433 -174.63916 12742 ft 349 kts 114°
2026-05-05 06:49 27.17471 -174.61411 12743 ft 349 kts 114°
2026-05-05 06:50 27.16510 -174.58915 12742 ft 349 kts 114°
2026-05-05 06:50 27.15549 -174.56419 12747 ft 349 kts 114°
2026-05-05 06:50 27.14586 -174.53920 12745 ft 349 kts 114°
2026-05-05 06:50 27.13623 -174.51421 12743 ft 349 kts 114°
2026-05-05 06:51 27.12659 -174.48923 12748 ft 349 kts 114°
2026-05-05 06:51 27.11695 -174.46425 12745 ft 349 kts 114°
2026-05-05 06:51 27.10732 -174.43932 12753 ft 349 kts 114°
2026-05-05 06:51 27.09768 -174.41437 12742 ft 349 kts 114°
2026-05-05 06:52 27.08802 -174.38938 12748 ft 349 kts 114°
2026-05-05 06:52 27.07837 -174.36446 12743 ft 348 kts 114°
2026-05-05 06:52 27.06884 -174.33985 12747 ft 348 kts 114°
2026-05-05 06:52 27.05920 -174.31497 12742 ft 348 kts 114°
2026-05-05 06:53 27.04954 -174.29006 12746 ft 348 kts 114°
2026-05-05 06:53 27.03988 -174.26514 12747 ft 348 kts 114°
2026-05-05 06:53 27.03022 -174.24027 12747 ft 348 kts 114°
2026-05-05 06:53 27.02055 -174.21535 12745 ft 348 kts 114°
2026-05-05 06:54 27.01089 -174.19050 12746 ft 348 kts 114°
2026-05-05 06:54 27.00122 -174.16563 12742 ft 348 kts 114°
2026-05-05 06:54 26.99153 -174.14072 12746 ft 348 kts 114°
2026-05-05 06:54 26.98184 -174.11584 12746 ft 348 kts 114°
2026-05-05 06:55 26.97214 -174.09096 12744 ft 349 kts 114°
2026-05-05 06:55 26.96243 -174.06605 12746 ft 349 kts 114°
2026-05-05 06:55 26.95272 -174.04117 12746 ft 349 kts 114°
2026-05-05 06:55 26.94301 -174.01628 12745 ft 349 kts 114°
2026-05-05 06:56 26.93328 -173.99138 12745 ft 348 kts 114°
2026-05-05 06:56 26.92356 -173.96651 12747 ft 349 kts 114°
2026-05-05 06:56 26.91385 -173.94165 12744 ft 348 kts 114°
2026-05-05 06:56 26.90412 -173.91680 12745 ft 348 kts 114°
2026-05-05 06:57 26.89438 -173.89195 12740 ft 348 kts 114°
2026-05-05 06:57 26.88464 -173.86711 12745 ft 348 kts 114°
2026-05-05 06:57 26.87490 -173.84225 12747 ft 348 kts 114°
2026-05-05 06:57 26.86516 -173.81743 12746 ft 348 kts 114°
2026-05-05 06:58 26.85542 -173.79262 12747 ft 348 kts 114°
2026-05-05 06:58 26.84569 -173.76782 12744 ft 348 kts 114°
2026-05-05 06:58 26.83604 -173.74329 12746 ft 348 kts 114°
2026-05-05 06:58 26.82630 -173.71851 12748 ft 348 kts 114°
2026-05-05 06:59 26.81653 -173.69371 12746 ft 348 kts 114°
2026-05-05 06:59 26.80678 -173.66895 12747 ft 348 kts 114°
2026-05-05 06:59 26.79701 -173.64415 12745 ft 348 kts 114°
2026-05-05 06:59 26.78724 -173.61937 12748 ft 348 kts 114°
2026-05-05 07:00 26.77745 -173.59455 12748 ft 348 kts 114°
2026-05-05 07:00 26.76768 -173.56979 12744 ft 348 kts 114°
2026-05-05 07:00 26.75789 -173.54500 12744 ft 348 kts 115°
2026-05-05 07:00 26.74809 -173.52021 12744 ft 348 kts 115°
2026-05-05 07:01 26.73832 -173.49549 12745 ft 348 kts 114°
2026-05-05 07:01 26.72851 -173.47069 12742 ft 348 kts 115°
2026-05-05 07:01 26.71871 -173.44597 12744 ft 348 kts 115°
2026-05-05 07:01 26.70889 -173.42117 12748 ft 348 kts 115°
2026-05-05 07:02 26.69907 -173.39642 12745 ft 348 kts 115°
2026-05-05 07:02 26.68925 -173.37169 12743 ft 348 kts 115°
2026-05-05 07:02 26.67943 -173.34692 12741 ft 348 kts 115°
2026-05-05 07:02 26.66960 -173.32216 12744 ft 348 kts 115°
2026-05-05 07:03 26.65976 -173.29740 12748 ft 348 kts 115°
2026-05-05 07:03 26.64992 -173.27268 12741 ft 348 kts 115°
2026-05-05 07:03 26.64009 -173.24795 12747 ft 348 kts 115°
2026-05-05 07:03 26.63024 -173.22321 12747 ft 348 kts 115°
2026-05-05 07:04 26.62038 -173.19846 12744 ft 348 kts 115°
2026-05-05 07:04 26.61054 -173.17378 12746 ft 348 kts 115°
2026-05-05 07:04 26.60068 -173.14904 12744 ft 348 kts 115°
2026-05-05 07:04 26.59081 -173.12434 12747 ft 348 kts 115°
2026-05-05 07:05 26.58094 -173.09963 12747 ft 348 kts 115°
2026-05-05 07:05 26.57107 -173.07491 12741 ft 348 kts 115°
2026-05-05 07:05 26.56117 -173.05019 12746 ft 349 kts 115°
2026-05-05 07:05 26.55129 -173.02549 12744 ft 348 kts 115°
2026-05-05 07:06 26.54142 -173.00083 12744 ft 348 kts 115°
2026-05-05 07:06 26.53150 -172.97605 12748 ft 348 kts 115°
2026-05-05 07:06 26.52161 -172.95139 12751 ft 348 kts 115°
2026-05-05 07:06 26.51171 -172.92671 12744 ft 348 kts 115°
2026-05-05 07:07 26.50192 -172.90232 12744 ft 348 kts 115°
2026-05-05 07:07 26.49201 -172.87764 12747 ft 349 kts 115°
2026-05-05 07:07 26.48210 -172.85297 12744 ft 348 kts 115°
2026-05-05 07:07 26.47219 -172.82832 12745 ft 348 kts 115°
2026-05-05 07:08 26.46226 -172.80364 12747 ft 348 kts 115°
2026-05-05 07:08 26.45234 -172.77898 12748 ft 348 kts 115°
2026-05-05 07:08 26.44242 -172.75436 12745 ft 349 kts 115°
2026-05-05 07:08 26.43248 -172.72970 12747 ft 348 kts 115°
2026-05-05 07:09 26.42254 -172.70504 12743 ft 348 kts 115°
2026-05-05 07:09 26.41257 -172.68035 12744 ft 348 kts 115°
2026-05-05 07:09 26.40264 -172.65573 12747 ft 348 kts 115°
2026-05-05 07:09 26.39270 -172.63113 12746 ft 348 kts 115°
2026-05-05 07:10 26.38276 -172.60653 12745 ft 348 kts 115°
2026-05-05 07:10 26.37280 -172.58190 12747 ft 348 kts 115°
2026-05-05 07:10 26.36283 -172.55729 12745 ft 349 kts 115°
2026-05-05 07:10 26.35285 -172.53264 12746 ft 348 kts 115°
2026-05-05 07:11 26.34288 -172.50802 12745 ft 349 kts 115°
2026-05-05 07:11 26.33291 -172.48343 12747 ft 349 kts 115°
2026-05-05 07:11 26.32293 -172.45883 12751 ft 348 kts 115°
2026-05-05 07:11 26.31295 -172.43423 12744 ft 348 kts 115°
2026-05-05 07:12 26.30296 -172.40965 12747 ft 348 kts 115°
2026-05-05 07:12 26.29296 -172.38503 12746 ft 348 kts 115°
2026-05-05 07:12 26.28297 -172.36048 12741 ft 348 kts 115°
2026-05-05 07:12 26.27297 -172.33588 12747 ft 348 kts 115°
2026-05-05 07:13 26.26296 -172.31130 12747 ft 348 kts 115°
2026-05-05 07:13 26.25295 -172.28674 12747 ft 348 kts 115°
2026-05-05 07:13 26.24292 -172.26212 12746 ft 348 kts 115°
2026-05-05 07:13 26.23290 -172.23757 12748 ft 349 kts 115°
2026-05-05 07:14 26.22286 -172.21298 12750 ft 348 kts 115°
2026-05-05 07:14 26.21283 -172.18840 12746 ft 349 kts 115°
2026-05-05 07:14 26.20281 -172.16389 12745 ft 348 kts 115°
2026-05-05 07:14 26.19277 -172.13930 12748 ft 348 kts 115°
2026-05-05 07:15 26.18271 -172.11471 12747 ft 348 kts 115°
2026-05-05 07:15 26.17268 -172.09021 12744 ft 349 kts 115°
2026-05-05 07:15 26.16262 -172.06567 12742 ft 348 kts 115°
2026-05-05 07:15 26.15256 -172.04112 12744 ft 348 kts 115°
2026-05-05 07:16 26.14265 -172.01693 12745 ft 349 kts 115°
2026-05-05 07:16 26.13258 -171.99237 12751 ft 349 kts 115°
2026-05-05 07:16 26.12252 -171.96788 12744 ft 348 kts 115°
2026-05-05 07:16 26.11245 -171.94335 12747 ft 349 kts 115°
2026-05-05 07:17 26.10236 -171.91880 12747 ft 349 kts 115°
2026-05-05 07:17 26.09229 -171.89431 12746 ft 349 kts 115°
2026-05-05 07:17 26.08219 -171.86976 12748 ft 349 kts 115°
2026-05-05 07:17 26.07210 -171.84523 12746 ft 348 kts 115°
2026-05-05 07:18 26.06202 -171.82079 12744 ft 348 kts 115°
2026-05-05 07:18 26.05191 -171.79628 12744 ft 348 kts 115°
2026-05-05 07:18 26.04181 -171.77178 12748 ft 348 kts 115°
2026-05-05 07:18 26.03172 -171.74732 12745 ft 348 kts 115°
2026-05-05 07:19 26.02160 -171.72282 12744 ft 348 kts 115°
2026-05-05 07:19 26.01150 -171.69835 12747 ft 349 kts 115°
2026-05-05 07:19 26.00139 -171.67389 12745 ft 348 kts 115°
2026-05-05 07:19 25.99126 -171.64942 12746 ft 348 kts 115°
2026-05-05 07:20 25.98112 -171.62492 12746 ft 348 kts 115°
2026-05-05 07:20 25.97100 -171.60048 12747 ft 348 kts 115°
2026-05-05 07:20 25.96086 -171.57601 12748 ft 348 kts 115°
2026-05-05 07:20 25.95075 -171.55159 12751 ft 348 kts 115°
2026-05-05 07:21 25.94062 -171.52719 12742 ft 348 kts 115°
2026-05-05 07:21 25.93048 -171.50277 12745 ft 348 kts 115°
2026-05-05 07:21 25.92035 -171.47837 12745 ft 348 kts 115°
2026-05-05 07:21 25.91018 -171.45392 12749 ft 348 kts 115°
2026-05-05 07:22 25.90002 -171.42949 12750 ft 348 kts 115°
2026-05-05 07:22 25.89000 -171.40538 12744 ft 348 kts 115°
2026-05-05 07:22 25.87983 -171.38096 12744 ft 348 kts 115°
2026-05-05 07:22 25.86967 -171.35654 12748 ft 348 kts 115°
2026-05-05 07:23 25.85949 -171.33213 12748 ft 348 kts 115°
2026-05-05 07:23 25.84934 -171.30778 12746 ft 348 kts 115°
2026-05-05 07:23 25.83915 -171.28336 12746 ft 348 kts 115°
2026-05-05 07:23 25.82898 -171.25901 12748 ft 348 kts 116°
2026-05-05 07:24 25.81879 -171.23462 12747 ft 348 kts 116°
2026-05-05 07:24 25.80860 -171.21023 12744 ft 348 kts 116°
2026-05-05 07:24 25.79841 -171.18586 12744 ft 348 kts 116°
2026-05-05 07:24 25.78822 -171.16151 12747 ft 348 kts 116°
2026-05-05 07:25 25.77801 -171.13713 12746 ft 348 kts 116°
2026-05-05 07:25 25.76779 -171.11273 12748 ft 348 kts 116°
2026-05-05 07:25 25.75758 -171.08838 12746 ft 348 kts 116°
2026-05-05 07:25 25.74737 -171.06403 12748 ft 348 kts 116°
2026-05-05 07:26 25.73714 -171.03965 12745 ft 348 kts 116°
2026-05-05 07:26 25.72691 -171.01529 12742 ft 348 kts 116°
2026-05-05 07:26 25.71670 -170.99098 12748 ft 348 kts 116°
2026-05-05 07:26 25.70645 -170.96659 12744 ft 348 kts 116°
2026-05-05 07:27 25.69623 -170.94227 12746 ft 348 kts 116°
2026-05-05 07:27 25.68596 -170.91789 12744 ft 349 kts 116°
2026-05-05 07:27 25.67571 -170.89357 12745 ft 348 kts 116°
2026-05-05 07:27 25.66547 -170.86923 12747 ft 348 kts 116°
2026-05-05 07:28 25.65535 -170.84522 12748 ft 348 kts 116°
2026-05-05 07:28 25.64510 -170.82093 12745 ft 348 kts 116°
2026-05-05 07:28 25.63484 -170.79662 12745 ft 348 kts 116°
2026-05-05 07:28 25.62458 -170.77229 12746 ft 348 kts 116°
2026-05-05 07:29 25.61431 -170.74800 12742 ft 348 kts 116°
2026-05-05 07:29 25.60402 -170.72366 12746 ft 349 kts 116°
2026-05-05 07:29 25.59375 -170.69937 12747 ft 349 kts 116°
2026-05-05 07:29 25.58345 -170.67505 12746 ft 348 kts 116°
2026-05-05 07:30 25.57316 -170.65075 12746 ft 348 kts 116°
2026-05-05 07:30 25.55259 -170.60221 12744 ft 348 kts 116°
2026-05-05 07:30 25.54228 -170.57790 12746 ft 348 kts 116°
2026-05-05 07:31 25.53197 -170.55363 12748 ft 349 kts 116°
2026-05-05 07:31 25.52165 -170.52931 12747 ft 348 kts 116°
2026-05-05 07:31 25.51134 -170.50504 12747 ft 348 kts 116°
2026-05-05 07:31 25.50102 -170.48076 12742 ft 348 kts 116°
2026-05-05 07:32 25.49072 -170.45654 12745 ft 348 kts 116°
2026-05-05 07:32 25.48040 -170.43226 12744 ft 349 kts 116°
2026-05-05 07:32 25.47007 -170.40800 12740 ft 348 kts 116°
2026-05-05 07:32 25.45973 -170.38375 12745 ft 348 kts 116°
2026-05-05 07:33 25.44940 -170.35953 12748 ft 348 kts 116°
2026-05-05 07:33 25.43906 -170.33530 12744 ft 348 kts 116°
2026-05-05 07:33 25.42872 -170.31107 12745 ft 348 kts 116°
2026-05-05 07:33 25.41838 -170.28686 12740 ft 348 kts 116°
2026-05-05 07:34 25.40801 -170.26261 12741 ft 349 kts 116°
2026-05-05 07:34 25.39766 -170.23838 12747 ft 348 kts 116°
2026-05-05 07:34 25.38730 -170.21415 12747 ft 349 kts 116°
2026-05-05 07:34 25.37694 -170.18994 12746 ft 348 kts 116°
2026-05-05 07:35 25.36657 -170.16574 12747 ft 349 kts 116°
2026-05-05 07:35 25.35620 -170.14152 12744 ft 349 kts 116°
2026-05-05 07:35 25.34595 -170.11762 12741 ft 348 kts 116°
2026-05-05 07:35 25.33558 -170.09343 12745 ft 348 kts 116°
2026-05-05 07:36 25.32521 -170.06926 12747 ft 348 kts 116°
2026-05-05 07:36 25.31481 -170.04506 12744 ft 348 kts 116°
2026-05-05 07:36 25.30442 -170.02089 12747 ft 349 kts 116°
2026-05-05 07:36 25.29399 -169.99663 12747 ft 349 kts 116°
2026-05-05 07:37 25.28360 -169.97247 12745 ft 349 kts 116°
2026-05-05 07:37 25.27320 -169.94830 12744 ft 349 kts 116°
2026-05-05 07:37 25.26278 -169.92410 12744 ft 349 kts 116°
2026-05-05 07:37 25.25238 -169.89995 12744 ft 348 kts 116°
2026-05-05 07:38 25.24194 -169.87575 12744 ft 348 kts 116°
2026-05-05 07:38 25.23504 -169.85974 12745 ft 348 kts 116°
2026-05-05 07:38 25.22464 -169.83563 12745 ft 348 kts 116°
2026-05-05 07:38 25.21421 -169.81147 12744 ft 348 kts 116°
2026-05-05 07:39 25.20378 -169.78731 12747 ft 348 kts 116°
2026-05-05 07:39 25.19335 -169.76318 12740 ft 348 kts 116°
2026-05-05 07:39 25.18289 -169.73900 12743 ft 348 kts 116°
2026-05-05 07:39 25.17245 -169.71488 12749 ft 348 kts 116°
2026-05-05 07:40 25.16201 -169.69074 12745 ft 349 kts 116°
2026-05-05 07:40 25.15155 -169.66661 12745 ft 349 kts 116°
2026-05-05 07:40 25.14110 -169.64250 12744 ft 349 kts 116°
2026-05-05 07:40 25.13064 -169.61837 12744 ft 349 kts 116°
2026-05-05 07:41 25.12017 -169.59425 12745 ft 348 kts 116°
2026-05-05 07:41 25.10968 -169.57008 12741 ft 349 kts 116°
2026-05-05 07:41 25.09921 -169.54598 12745 ft 349 kts 116°
2026-05-05 07:41 25.08874 -169.52187 12749 ft 349 kts 116°
2026-05-05 07:42 25.07824 -169.49774 12745 ft 349 kts 116°
2026-05-05 07:42 25.06790 -169.47394 12746 ft 349 kts 116°
2026-05-05 07:42 25.05742 -169.44987 12745 ft 349 kts 116°
2026-05-05 07:42 25.04690 -169.42573 12738 ft 349 kts 116°
2026-05-05 07:43 25.03642 -169.40166 12749 ft 349 kts 116°
2026-05-05 07:43 25.02590 -169.37754 12741 ft 348 kts 116°
2026-05-05 07:43 25.01541 -169.35349 12741 ft 349 kts 116°
2026-05-05 07:43 25.00490 -169.32941 12745 ft 348 kts 116°
2026-05-05 07:44 24.99438 -169.30532 12749 ft 349 kts 116°
2026-05-05 07:44 24.98387 -169.28127 12751 ft 349 kts 116°
2026-05-05 07:44 24.97335 -169.25719 12749 ft 349 kts 116°
2026-05-05 07:44 24.96281 -169.23309 12751 ft 349 kts 116°
2026-05-05 07:45 24.95228 -169.20904 12749 ft 349 kts 116°
2026-05-05 07:45 24.94175 -169.18496 12744 ft 349 kts 116°
2026-05-05 07:45 24.93121 -169.16092 12746 ft 349 kts 116°
2026-05-05 07:45 24.92066 -169.13687 12746 ft 349 kts 116°
2026-05-05 07:46 24.91012 -169.11282 12746 ft 348 kts 116°
2026-05-05 07:46 24.89958 -169.08881 12745 ft 348 kts 116°
2026-05-05 07:46 24.88903 -169.06478 12745 ft 348 kts 116°
2026-05-05 07:46 24.87846 -169.04073 12745 ft 348 kts 116°
2026-05-05 07:47 24.86792 -169.01674 12745 ft 348 kts 116°
2026-05-05 07:47 24.85736 -168.99273 12746 ft 348 kts 116°
2026-05-05 07:47 24.84681 -168.96876 12747 ft 348 kts 116°
2026-05-05 07:47 24.83624 -168.94475 12748 ft 348 kts 116°
2026-05-05 07:48 24.82566 -168.92074 12747 ft 348 kts 116°
2026-05-05 07:48 24.81509 -168.89674 12748 ft 348 kts 117°
2026-05-05 07:48 24.80451 -168.87275 12748 ft 348 kts 117°
2026-05-05 07:48 24.79392 -168.84874 12745 ft 349 kts 116°
2026-05-05 07:49 24.78335 -168.82478 12744 ft 348 kts 117°
2026-05-05 07:49 24.77276 -168.80081 12747 ft 348 kts 117°
2026-05-05 07:49 24.76216 -168.77683 12745 ft 348 kts 117°
2026-05-05 07:49 24.75155 -168.75284 12746 ft 348 kts 117°
2026-05-05 07:50 24.74095 -168.72888 12741 ft 348 kts 117°
2026-05-05 07:50 24.73036 -168.70495 12745 ft 348 kts 117°
2026-05-05 07:50 24.71974 -168.68096 12744 ft 349 kts 117°
2026-05-05 07:50 24.70912 -168.65699 12747 ft 349 kts 117°
2026-05-05 07:51 24.69849 -168.63300 12741 ft 349 kts 117°
2026-05-05 07:51 24.68801 -168.60938 12747 ft 348 kts 117°
2026-05-05 07:51 24.67725 -168.58514 12747 ft 349 kts 117°
2026-05-05 07:51 24.66661 -168.56118 12747 ft 349 kts 117°
2026-05-05 07:52 24.65612 -168.53757 12744 ft 349 kts 117°
2026-05-05 07:52 24.64548 -168.51361 12744 ft 349 kts 117°
2026-05-05 07:52 24.63483 -168.48966 12751 ft 348 kts 117°
2026-05-05 07:52 24.62421 -168.46577 12742 ft 348 kts 117°
2026-05-05 07:53 24.61354 -168.44179 12744 ft 349 kts 117°
2026-05-05 07:53 24.60287 -168.41787 12747 ft 349 kts 117°
2026-05-05 07:53 24.59221 -168.39394 12744 ft 349 kts 117°
2026-05-05 07:53 24.58154 -168.37004 12747 ft 349 kts 117°
2026-05-05 07:54 24.57088 -168.34613 12745 ft 349 kts 117°
2026-05-05 07:54 24.56021 -168.32223 12747 ft 348 kts 117°
2026-05-05 07:54 24.54954 -168.29832 12745 ft 348 kts 117°
2026-05-05 07:54 24.53887 -168.27444 12747 ft 348 kts 117°
2026-05-05 07:55 24.52820 -168.25056 12745 ft 349 kts 117°
2026-05-05 07:55 24.51750 -168.22666 12746 ft 349 kts 117°
2026-05-05 07:55 24.50679 -168.20274 12747 ft 349 kts 117°
2026-05-05 07:55 24.49610 -168.17885 12741 ft 349 kts 117°
2026-05-05 07:56 24.48539 -168.15496 12738 ft 349 kts 117°
2026-05-05 07:56 24.47470 -168.13111 12747 ft 349 kts 117°
2026-05-05 07:56 24.46413 -168.10752 12745 ft 349 kts 117°
2026-05-05 07:56 24.45328 -168.08334 12741 ft 349 kts 117°
2026-05-05 07:57 24.44271 -168.05980 12747 ft 349 kts 117°
2026-05-05 07:57 24.43200 -168.03595 12745 ft 349 kts 117°
2026-05-05 07:57 24.42114 -168.01180 12748 ft 349 kts 117°
2026-05-05 07:57 24.41056 -167.98826 12740 ft 348 kts 117°
2026-05-05 07:58 24.39982 -167.96438 12746 ft 348 kts 117°
2026-05-05 07:58 24.38912 -167.94062 12745 ft 348 kts 117°
2026-05-05 07:58 24.37838 -167.91678 12747 ft 348 kts 117°
2026-05-05 07:58 24.36766 -167.89299 12751 ft 348 kts 117°
2026-05-05 07:59 24.35690 -167.86912 12751 ft 348 kts 117°
2026-05-05 07:59 24.34617 -167.84531 12745 ft 349 kts 117°
2026-05-05 07:59 24.33544 -167.82153 12745 ft 349 kts 117°
2026-05-05 07:59 24.32468 -167.79771 12744 ft 349 kts 117°
2026-05-05 08:00 24.31392 -167.77391 12745 ft 348 kts 117°
2026-05-05 08:00 24.30316 -167.75006 12745 ft 348 kts 117°
2026-05-05 08:00 24.29239 -167.72626 12745 ft 349 kts 117°
2026-05-05 08:00 24.28163 -167.70249 12745 ft 349 kts 117°
2026-05-05 08:01 24.27087 -167.67871 12744 ft 349 kts 117°
2026-05-05 08:01 24.26009 -167.65491 12748 ft 348 kts 117°
2026-05-05 08:01 24.24929 -167.63109 12741 ft 348 kts 117°
2026-05-05 08:01 24.23853 -167.60734 12744 ft 349 kts 117°
2026-05-05 08:02 24.22774 -167.58354 12746 ft 349 kts 117°
2026-05-05 08:02 24.21696 -167.55979 12746 ft 349 kts 117°
2026-05-05 08:02 24.20616 -167.53601 12751 ft 349 kts 117°
2026-05-05 08:02 24.19535 -167.51222 12745 ft 349 kts 117°
2026-05-05 08:03 24.18456 -167.48848 12747 ft 349 kts 117°
2026-05-05 08:03 24.17374 -167.46470 12745 ft 349 kts 117°
2026-05-05 08:03 24.16307 -167.44124 12747 ft 349 kts 117°
2026-05-05 08:03 24.15212 -167.41717 12748 ft 349 kts 117°
2026-05-05 08:04 24.14144 -167.39373 12748 ft 349 kts 117°
2026-05-05 08:04 24.13060 -167.36995 12744 ft 349 kts 117°
2026-05-05 08:04 24.11977 -167.34620 12747 ft 349 kts 117°
2026-05-05 08:04 24.10893 -167.32243 12747 ft 349 kts 117°
2026-05-05 08:05 24.09810 -167.29873 12744 ft 349 kts 117°
2026-05-05 08:05 24.08725 -167.27494 12749 ft 349 kts 117°
2026-05-05 08:05 24.07642 -167.25124 12746 ft 349 kts 117°
2026-05-05 08:05 24.06558 -167.22750 12745 ft 349 kts 117°
2026-05-05 08:06 24.05473 -167.20379 12747 ft 349 kts 117°
2026-05-05 08:06 24.04387 -167.18007 12741 ft 349 kts 117°
2026-05-05 08:06 24.03304 -167.15641 12742 ft 348 kts 117°
2026-05-05 08:06 24.02219 -167.13272 12744 ft 348 kts 117°
2026-05-05 08:07 24.01133 -167.10901 12747 ft 348 kts 117°
2026-05-05 08:07 24.00047 -167.08533 12745 ft 349 kts 117°
2026-05-05 08:07 23.98962 -167.06167 12747 ft 348 kts 117°
2026-05-05 08:07 23.97873 -167.03797 12745 ft 349 kts 117°
2026-05-05 08:08 23.96786 -167.01428 12744 ft 349 kts 117°
2026-05-05 08:08 23.95697 -166.99057 12748 ft 349 kts 117°
2026-05-05 08:08 23.94608 -166.96687 12744 ft 349 kts 117°
2026-05-05 08:08 23.93521 -166.94324 12747 ft 349 kts 117°
2026-05-05 08:09 23.92429 -166.91952 12745 ft 349 kts 117°
2026-05-05 08:09 23.91339 -166.89586 12745 ft 349 kts 117°
2026-05-05 08:09 23.90251 -166.87221 12746 ft 349 kts 117°
2026-05-05 08:09 23.89160 -166.84852 12745 ft 349 kts 117°
2026-05-05 08:10 23.88069 -166.82486 12749 ft 349 kts 117°
2026-05-05 08:10 23.86979 -166.80123 12744 ft 348 kts 117°
2026-05-05 08:10 23.85888 -166.77758 12746 ft 349 kts 117°
2026-05-05 08:10 23.84794 -166.75391 12747 ft 349 kts 117°
2026-05-05 08:11 23.83704 -166.73030 12745 ft 349 kts 117°
2026-05-05 08:11 23.82625 -166.70697 12744 ft 349 kts 117°
2026-05-05 08:11 23.81518 -166.68304 12744 ft 349 kts 117°
2026-05-05 08:11 23.80440 -166.65971 12741 ft 349 kts 117°
2026-05-05 08:12 23.79344 -166.63606 12747 ft 349 kts 117°
2026-05-05 08:12 23.78251 -166.61246 12748 ft 349 kts 117°
2026-05-05 08:12 23.77156 -166.58882 12748 ft 349 kts 117°
2026-05-05 08:12 23.76063 -166.56523 12745 ft 348 kts 117°
2026-05-05 08:13 23.74969 -166.54164 12744 ft 348 kts 117°
2026-05-05 08:13 23.73872 -166.51803 12748 ft 349 kts 117°
2026-05-05 08:13 23.72777 -166.49443 12744 ft 348 kts 117°
2026-05-05 08:13 23.71682 -166.47087 12745 ft 348 kts 117°
2026-05-05 08:14 23.70585 -166.44726 12746 ft 349 kts 117°
2026-05-05 08:14 23.69489 -166.42369 12745 ft 349 kts 117°
2026-05-05 08:14 23.68390 -166.40007 12745 ft 349 kts 118°
2026-05-05 08:14 23.67292 -166.37646 12744 ft 349 kts 117°
2026-05-05 08:15 23.66193 -166.35287 12746 ft 349 kts 118°
2026-05-05 08:15 23.65095 -166.32930 12748 ft 349 kts 118°
2026-05-05 08:15 23.63995 -166.30570 12744 ft 349 kts 118°
2026-05-05 08:15 23.62895 -166.28211 12748 ft 349 kts 118°
2026-05-05 08:16 23.61796 -166.25857 12738 ft 348 kts 118°
2026-05-05 08:16 23.60697 -166.23502 12747 ft 348 kts 118°
2026-05-05 08:16 23.59612 -166.21178 12748 ft 349 kts 118°
2026-05-05 08:16 23.58511 -166.18822 12742 ft 349 kts 118°
2026-05-05 08:17 23.57412 -166.16470 12741 ft 349 kts 118°
2026-05-05 08:17 23.56310 -166.14115 12745 ft 349 kts 118°
2026-05-05 08:17 23.55208 -166.11760 12748 ft 349 kts 118°
2026-05-05 08:17 23.54105 -166.09404 12747 ft 349 kts 118°
2026-05-05 08:18 23.53002 -166.07049 12740 ft 349 kts 118°
2026-05-05 08:18 23.51900 -166.04697 12746 ft 349 kts 118°
2026-05-05 08:18 23.50798 -166.02347 12745 ft 349 kts 118°
2026-05-05 08:18 23.49694 -165.99993 12747 ft 349 kts 118°
2026-05-05 08:19 23.48590 -165.97644 12744 ft 349 kts 118°
2026-05-05 08:19 23.47485 -165.95291 12751 ft 349 kts 118°
2026-05-05 08:19 23.46381 -165.92938 12745 ft 348 kts 118°
2026-05-05 08:19 23.45278 -165.90593 12745 ft 349 kts 118°
2026-05-05 08:20 23.44174 -165.88244 12744 ft 349 kts 118°
2026-05-05 08:20 23.43067 -165.85892 12747 ft 349 kts 118°
2026-05-05 08:20 23.41959 -165.83539 12746 ft 349 kts 118°
2026-05-05 08:20 23.40856 -165.81196 12745 ft 348 kts 118°
2026-05-05 08:21 23.39749 -165.78845 12747 ft 348 kts 118°
2026-05-05 08:21 23.38644 -165.76501 12741 ft 348 kts 118°
2026-05-05 08:21 23.37538 -165.74158 12741 ft 348 kts 118°
2026-05-05 08:21 23.36430 -165.71810 12747 ft 349 kts 118°
2026-05-05 08:22 23.35322 -165.69462 12749 ft 348 kts 118°
2026-05-05 08:22 23.34214 -165.67117 12747 ft 348 kts 118°
2026-05-05 08:22 23.33107 -165.64776 12747 ft 349 kts 118°
2026-05-05 08:22 23.31998 -165.62431 12748 ft 349 kts 118°
2026-05-05 08:23 23.30889 -165.60084 12745 ft 349 kts 118°
2026-05-05 08:23 23.29777 -165.57734 12742 ft 349 kts 118°
2026-05-05 08:23 23.28684 -165.55424 12744 ft 349 kts 118°
2026-05-05 08:23 23.27573 -165.53080 12751 ft 349 kts 118°
2026-05-05 08:24 23.26463 -165.50737 12744 ft 349 kts 118°
2026-05-05 08:24 23.25351 -165.48392 12747 ft 349 kts 118°
2026-05-05 08:24 23.24240 -165.46051 12748 ft 349 kts 118°
2026-05-05 08:24 23.23127 -165.43706 12747 ft 349 kts 118°
2026-05-05 08:25 23.22015 -165.41363 12748 ft 349 kts 118°
2026-05-05 08:25 23.20902 -165.39022 12749 ft 349 kts 118°
2026-05-05 08:25 23.19790 -165.36681 12751 ft 349 kts 118°
2026-05-05 08:25 23.18676 -165.34338 12745 ft 349 kts 118°
2026-05-05 08:26 23.17563 -165.31999 12744 ft 349 kts 118°
2026-05-05 08:26 23.16448 -165.29656 12748 ft 349 kts 118°
2026-05-05 08:26 23.15336 -165.27320 12745 ft 349 kts 118°
2026-05-05 08:26 23.14220 -165.24978 12745 ft 349 kts 118°
2026-05-05 08:27 23.13104 -165.22638 12748 ft 349 kts 118°
2026-05-05 08:27 23.11990 -165.20301 12744 ft 349 kts 118°
2026-05-05 08:27 23.10875 -165.17964 12745 ft 349 kts 118°
2026-05-05 08:27 23.09759 -165.15625 12744 ft 348 kts 118°
2026-05-05 08:28 23.08645 -165.13291 12745 ft 348 kts 118°
2026-05-05 08:28 23.07528 -165.10955 12744 ft 348 kts 118°
2026-05-05 08:28 23.06412 -165.08622 12744 ft 349 kts 118°
2026-05-05 08:28 23.05296 -165.06286 12747 ft 348 kts 118°
2026-05-05 08:29 23.04180 -165.03955 12751 ft 348 kts 118°
2026-05-05 08:29 23.03076 -165.01649 12742 ft 348 kts 118°
2026-05-05 08:29 23.02322 -165.00074 12740 ft 348 kts 118°
2026-05-05 08:30 22.99725 -164.94656 12745 ft 348 kts 118°
2026-05-05 08:30 22.98604 -164.92320 12749 ft 348 kts 118°
2026-05-05 08:30 22.97485 -164.89987 12751 ft 348 kts 118°
2026-05-05 08:30 22.96365 -164.87656 12745 ft 349 kts 118°
2026-05-05 08:31 22.95245 -164.85324 12746 ft 349 kts 118°
2026-05-05 08:31 22.94503 -164.83779 12747 ft 348 kts 118°
2026-05-05 08:31 22.93383 -164.81448 12745 ft 349 kts 118°
2026-05-05 08:31 22.92261 -164.79114 12745 ft 349 kts 118°
2026-05-05 08:32 22.91140 -164.76780 12744 ft 349 kts 118°
2026-05-05 08:32 22.90017 -164.74445 12748 ft 349 kts 118°
2026-05-05 08:32 22.88893 -164.72114 12748 ft 349 kts 118°
2026-05-05 08:32 22.87769 -164.69785 12746 ft 349 kts 118°
2026-05-05 08:33 22.86645 -164.67453 12747 ft 349 kts 118°
2026-05-05 08:33 22.85520 -164.65119 12739 ft 349 kts 118°
2026-05-05 08:33 22.84397 -164.62791 12748 ft 349 kts 118°
2026-05-05 08:33 22.83271 -164.60458 12746 ft 349 kts 118°
2026-05-05 08:34 22.82145 -164.58128 12740 ft 349 kts 118°
2026-05-05 08:34 22.81021 -164.55801 12750 ft 348 kts 118°
2026-05-05 08:34 22.79896 -164.53473 12748 ft 349 kts 118°
2026-05-05 08:34 22.78770 -164.51145 12758 ft 348 kts 118°
2026-05-05 08:35 22.77644 -164.48817 12736 ft 349 kts 118°
2026-05-05 08:35 22.76517 -164.46490 12743 ft 348 kts 118°
2026-05-05 08:35 22.75391 -164.44166 12744 ft 348 kts 118°
2026-05-05 08:35 22.74281 -164.41874 12748 ft 348 kts 118°
2026-05-05 08:36 22.73154 -164.39550 12745 ft 348 kts 118°
2026-05-05 08:36 22.72028 -164.37228 12741 ft 349 kts 118°
2026-05-05 08:36 22.70900 -164.34902 12746 ft 349 kts 118°
2026-05-05 08:36 22.69772 -164.32577 12745 ft 349 kts 118°
2026-05-05 08:37 22.68643 -164.30251 12744 ft 349 kts 118°
2026-05-05 08:37 22.67514 -164.27927 12741 ft 348 kts 118°
2026-05-05 08:37 22.66387 -164.25610 12746 ft 348 kts 118°
2026-05-05 08:37 22.65257 -164.23289 12744 ft 349 kts 118°
2026-05-05 08:38 22.64129 -164.20969 12745 ft 349 kts 118°
2026-05-05 08:38 22.62997 -164.18644 12750 ft 349 kts 118°
2026-05-05 08:38 22.61866 -164.16322 12747 ft 349 kts 118°
2026-05-05 08:38 22.60736 -164.14002 12747 ft 349 kts 118°
2026-05-05 08:39 22.59603 -164.11679 12744 ft 349 kts 118°
2026-05-05 08:39 22.58471 -164.09358 12746 ft 349 kts 118°
2026-05-05 08:39 22.57340 -164.07039 12748 ft 349 kts 118°
2026-05-05 08:39 22.56208 -164.04720 12746 ft 349 kts 118°
2026-05-05 08:40 22.55074 -164.02397 12752 ft 349 kts 118°
2026-05-05 08:40 22.53943 -164.00082 12743 ft 348 kts 118°
2026-05-05 08:40 22.52810 -163.97765 12746 ft 349 kts 118°
2026-05-05 08:40 22.51677 -163.95446 12744 ft 348 kts 118°
2026-05-05 08:41 22.50545 -163.93132 12744 ft 349 kts 118°
2026-05-05 08:41 22.49412 -163.90819 12745 ft 348 kts 118°
2026-05-05 08:41 22.48275 -163.88497 12747 ft 349 kts 118°
2026-05-05 08:41 22.47142 -163.86182 12746 ft 349 kts 118°
2026-05-05 08:42 22.46022 -163.83898 12741 ft 348 kts 118°
2026-05-05 08:42 22.44887 -163.81584 12745 ft 348 kts 119°
2026-05-05 08:42 22.43753 -163.79273 12746 ft 348 kts 118°
2026-05-05 08:42 22.42618 -163.76959 12745 ft 348 kts 119°
2026-05-05 08:43 22.41481 -163.74644 12744 ft 349 kts 119°
2026-05-05 08:43 22.40345 -163.72329 12745 ft 349 kts 119°
2026-05-05 08:43 22.39207 -163.70016 12748 ft 349 kts 119°
2026-05-05 08:43 22.38070 -163.67704 12746 ft 348 kts 119°
2026-05-05 08:44 22.36933 -163.65394 12747 ft 349 kts 119°
2026-05-05 08:44 22.35793 -163.63077 12748 ft 349 kts 119°
2026-05-05 08:44 22.34656 -163.60767 12746 ft 349 kts 119°
2026-05-05 08:44 22.33517 -163.58456 12740 ft 349 kts 119°
2026-05-05 08:45 22.32377 -163.56141 12746 ft 349 kts 119°
2026-05-05 08:45 22.31238 -163.53832 12741 ft 349 kts 119°
2026-05-05 08:45 22.30098 -163.51519 12744 ft 348 kts 119°
2026-05-05 08:45 22.28960 -163.49212 12747 ft 348 kts 119°
2026-05-05 08:46 22.27820 -163.46903 12746 ft 348 kts 119°
2026-05-05 08:46 22.26680 -163.44596 12746 ft 348 kts 119°
2026-05-05 08:46 22.25541 -163.42291 12743 ft 348 kts 119°
2026-05-05 08:46 22.24401 -163.39984 12748 ft 348 kts 119°
2026-05-05 08:47 22.23259 -163.37675 12744 ft 349 kts 119°
2026-05-05 08:47 22.22118 -163.35371 12748 ft 349 kts 119°
2026-05-05 08:47 22.20990 -163.33092 12742 ft 349 kts 119°
2026-05-05 08:47 22.19848 -163.30787 12745 ft 348 kts 119°
2026-05-05 08:48 22.18706 -163.28481 12745 ft 348 kts 119°
2026-05-05 08:48 22.17565 -163.26178 12747 ft 348 kts 119°
2026-05-05 08:48 22.16421 -163.23873 12743 ft 348 kts 119°
2026-05-05 08:48 22.15280 -163.21573 12745 ft 348 kts 119°
2026-05-05 08:49 22.14135 -163.19267 12744 ft 349 kts 119°
2026-05-05 08:49 22.12988 -163.16958 12747 ft 349 kts 119°
2026-05-05 08:49 22.11842 -163.14649 12745 ft 349 kts 119°
2026-05-05 08:49 22.10698 -163.12348 12744 ft 349 kts 119°
2026-05-05 08:50 22.09551 -163.10041 12747 ft 349 kts 119°
2026-05-05 08:50 22.08405 -163.07738 12745 ft 349 kts 119°
2026-05-05 08:50 22.07257 -163.05431 12748 ft 349 kts 119°
2026-05-05 08:50 22.06111 -163.03129 12738 ft 349 kts 119°
2026-05-05 08:51 22.04963 -163.00825 12748 ft 349 kts 119°
2026-05-05 08:51 22.03814 -162.98520 12744 ft 349 kts 119°
2026-05-05 08:51 22.02666 -162.96218 12745 ft 349 kts 119°
2026-05-05 08:51 22.01519 -162.93917 12743 ft 349 kts 119°
2026-05-05 08:52 22.00370 -162.91614 12751 ft 349 kts 119°
2026-05-05 08:52 21.99221 -162.89314 12744 ft 348 kts 119°
2026-05-05 08:52 21.98070 -162.87010 12744 ft 349 kts 119°
2026-05-05 08:52 21.96920 -162.84709 12747 ft 349 kts 119°
2026-05-05 08:53 21.95772 -162.82410 12746 ft 349 kts 119°
2026-05-05 08:53 21.94623 -162.80114 12746 ft 349 kts 119°
2026-05-05 08:53 21.93482 -162.77805 12743 ft 349 kts 117°
2026-05-05 08:53 21.92636 -162.75365 12744 ft 349 kts 105°
2026-05-05 08:54 21.92256 -162.72817 12749 ft 349 kts 95°
2026-05-05 08:54 21.92113 -162.70206 12743 ft 350 kts 92°
2026-05-05 08:54 21.92053 -162.67588 12746 ft 350 kts 91°
2026-05-05 08:54 21.92035 -162.64971 12745 ft 350 kts 90°
2026-05-05 08:55 21.92035 -162.62353 12746 ft 350 kts 90°
2026-05-05 08:55 21.92043 -162.59731 12746 ft 350 kts 90°
2026-05-05 08:55 21.92055 -162.57109 12745 ft 350 kts 90°
2026-05-05 08:55 21.92067 -162.54488 12745 ft 350 kts 90°
2026-05-05 08:56 21.92080 -162.51870 12746 ft 350 kts 90°
2026-05-05 08:56 21.92092 -162.49271 12745 ft 350 kts 90°
2026-05-05 08:56 21.92102 -162.46650 12745 ft 350 kts 90°
2026-05-05 08:56 21.92112 -162.44032 12745 ft 350 kts 90°
2026-05-05 08:57 21.92121 -162.41411 12746 ft 350 kts 90°
2026-05-05 08:57 21.92129 -162.38795 12746 ft 350 kts 90°
2026-05-05 08:57 21.92136 -162.36176 12746 ft 350 kts 90°
2026-05-05 08:57 21.92143 -162.33552 12746 ft 350 kts 90°
2026-05-05 08:58 21.92149 -162.30966 12745 ft 351 kts 90°
2026-05-05 08:58 21.92153 -162.28343 12746 ft 350 kts 90°
2026-05-05 08:58 21.92156 -162.25719 12745 ft 350 kts 90°
2026-05-05 08:58 21.92160 -162.23097 12745 ft 350 kts 90°
2026-05-05 08:59 21.92162 -162.20493 12746 ft 350 kts 90°
2026-05-05 08:59 21.92164 -162.17870 12745 ft 350 kts 90°
2026-05-05 08:59 21.92164 -162.15250 12746 ft 350 kts 90°
2026-05-05 08:59 21.92164 -162.12629 12745 ft 350 kts 90°
2026-05-05 09:00 21.92162 -162.10009 12746 ft 350 kts 90°
2026-05-05 09:00 21.92161 -162.07389 12746 ft 350 kts 90°
2026-05-05 09:00 21.92159 -162.04769 12746 ft 350 kts 90°
2026-05-05 09:00 21.92156 -162.02150 12745 ft 350 kts 90°
2026-05-05 09:01 21.92152 -161.99530 12746 ft 350 kts 90°
2026-05-05 09:01 21.92148 -161.96914 12745 ft 349 kts 90°
2026-05-05 09:01 21.92142 -161.94293 12746 ft 350 kts 90°
2026-05-05 09:01 21.92136 -161.91677 12745 ft 350 kts 90°
2026-05-05 09:02 21.92130 -161.89058 12746 ft 350 kts 90°
2026-05-05 09:02 21.92122 -161.86441 12745 ft 349 kts 90°
2026-05-05 09:02 21.92115 -161.83824 12745 ft 350 kts 90°
2026-05-05 09:02 21.92107 -161.81208 12746 ft 350 kts 90°
2026-05-05 09:03 21.92097 -161.78589 12745 ft 350 kts 90°
2026-05-05 09:03 21.92087 -161.75970 12746 ft 350 kts 90°
2026-05-05 09:03 21.92077 -161.73388 12746 ft 350 kts 90°
2026-05-05 09:03 21.92066 -161.70770 12745 ft 350 kts 90°
2026-05-05 09:04 21.92055 -161.68152 12745 ft 350 kts 90°
2026-05-05 09:04 21.92038 -161.65533 12745 ft 350 kts 90°
2026-05-05 09:04 21.92024 -161.62914 12745 ft 350 kts 90°
2026-05-05 09:04 21.92014 -161.60298 12746 ft 350 kts 90°
2026-05-05 09:05 21.92007 -161.57676 12745 ft 350 kts 90°
2026-05-05 09:05 21.92000 -161.55056 12737 ft 350 kts 90°
2026-05-05 09:05 21.91993 -161.52437 12746 ft 350 kts 90°
2026-05-05 09:05 21.91986 -161.49818 12746 ft 350 kts 90°
2026-05-05 09:06 21.91979 -161.47196 12746 ft 350 kts 90°
2026-05-05 09:06 21.91970 -161.44575 12746 ft 350 kts 90°
2026-05-05 09:06 21.91961 -161.41956 12746 ft 350 kts 90°
2026-05-05 09:06 21.91953 -161.39337 12746 ft 350 kts 90°
2026-05-05 09:07 21.91944 -161.36713 12746 ft 350 kts 90°
2026-05-05 09:07 21.91933 -161.34091 12746 ft 350 kts 90°
2026-05-05 09:07 21.91922 -161.31467 12746 ft 350 kts 90°
2026-05-05 09:07 21.91911 -161.28848 12745 ft 350 kts 90°
2026-05-05 09:08 21.91899 -161.26235 12837 ft 347 kts 90°
2026-05-05 09:08 21.91886 -161.23648 12989 ft 344 kts 90°
2026-05-05 09:08 21.91873 -161.21077 12814 ft 339 kts 90°
2026-05-05 09:08 21.91861 -161.18610 12487 ft 320 kts 90°
2026-05-05 09:09 21.91848 -161.16249 12165 ft 312 kts 90°
2026-05-05 09:09 21.91834 -161.13912 11834 ft 312 kts 90°
2026-05-05 09:09 21.91820 -161.11575 11511 ft 312 kts 90°
2026-05-05 09:09 21.91808 -161.09246 11192 ft 311 kts 90°
2026-05-05 09:10 21.91794 -161.06927 10874 ft 309 kts 90°
2026-05-05 09:10 21.91782 -161.04622 10557 ft 307 kts 90°
2026-05-05 09:10 21.91767 -161.02328 10243 ft 306 kts 90°
2026-05-05 09:10 21.91751 -161.00046 9930 ft 304 kts 90°
2026-05-05 09:11 21.91735 -160.97773 9619 ft 303 kts 90°
2026-05-05 09:11 21.91719 -160.95509 9309 ft 302 kts 90°
2026-05-05 09:11 21.91704 -160.93271 9003 ft 300 kts 90°
2026-05-05 09:11 21.91688 -160.91057 8701 ft 299 kts 90°
2026-05-05 09:12 21.91672 -160.88828 8396 ft 297 kts 90°
2026-05-05 09:12 21.91655 -160.86606 8092 ft 296 kts 90°
2026-05-05 09:12 21.91639 -160.84397 7789 ft 295 kts 90°
2026-05-05 09:12 21.91621 -160.82196 7487 ft 293 kts 90°
2026-05-05 09:13 21.91604 -160.80005 7187 ft 292 kts 90°
2026-05-05 09:13 21.91586 -160.77823 6888 ft 291 kts 90°
2026-05-05 09:13 21.91568 -160.75651 6591 ft 289 kts 90°
2026-05-05 09:13 21.91550 -160.73486 6295 ft 288 kts 90°
2026-05-05 09:14 21.91531 -160.71333 6000 ft 287 kts 90°
2026-05-05 09:14 21.91513 -160.69192 5708 ft 286 kts 90°
2026-05-05 09:14 21.91494 -160.67059 5414 ft 284 kts 90°
2026-05-05 09:14 21.91475 -160.64932 5128 ft 283 kts 90°
2026-05-05 09:15 21.91456 -160.62814 4839 ft 282 kts 91°
2026-05-05 09:15 21.91436 -160.60708 4550 ft 281 kts 90°
2026-05-05 09:15 21.91417 -160.58610 4264 ft 280 kts 91°
2026-05-05 09:15 21.91396 -160.56519 3978 ft 278 kts 91°
2026-05-05 09:16 21.91377 -160.54440 3694 ft 278 kts 91°
2026-05-05 09:16 21.91355 -160.52394 3416 ft 276 kts 91°
2026-05-05 09:16 21.91336 -160.50330 3134 ft 275 kts 90°
2026-05-05 09:16 21.91315 -160.48283 2899 ft 273 kts 91°
2026-05-05 09:17 21.91293 -160.46249 2849 ft 272 kts 90°
2026-05-05 09:17 21.91273 -160.44203 2844 ft 274 kts 91°
2026-05-05 09:17 21.91254 -160.42150 2848 ft 275 kts 91°
2026-05-05 09:17 21.91232 -160.40095 2847 ft 272 kts 91°
2026-05-05 09:18 21.91210 -160.38123 2839 ft 256 kts 91°
2026-05-05 09:18 21.91188 -160.36227 2846 ft 252 kts 91°
2026-05-05 09:18 21.91165 -160.34336 2848 ft 253 kts 91°
2026-05-05 09:18 21.91144 -160.32445 2848 ft 253 kts 91°
2026-05-05 09:19 21.91123 -160.30548 2847 ft 253 kts 91°
2026-05-05 09:19 21.91102 -160.28659 2844 ft 250 kts 91°
2026-05-05 09:19 21.91080 -160.26801 2847 ft 249 kts 91°
2026-05-05 09:19 21.91059 -160.24921 2850 ft 252 kts 91°
2026-05-05 09:20 21.91039 -160.23027 2848 ft 253 kts 91°
2026-05-05 09:20 21.91019 -160.21130 2847 ft 253 kts 91°
2026-05-05 09:20 21.90995 -160.19237 2848 ft 253 kts 91°
2026-05-05 09:20 21.90971 -160.17340 2847 ft 253 kts 91°
2026-05-05 09:21 21.90947 -160.15442 2850 ft 254 kts 91°
2026-05-05 09:21 21.90923 -160.13541 2848 ft 254 kts 91°
2026-05-05 09:21 21.90901 -160.11641 2848 ft 254 kts 91°
2026-05-05 09:21 21.90877 -160.09743 2847 ft 254 kts 91°
2026-05-05 09:22 21.90851 -160.07843 2846 ft 254 kts 90°
2026-05-05 09:22 21.90830 -160.05943 2842 ft 253 kts 91°
2026-05-05 09:22 21.90805 -160.04052 2844 ft 253 kts 91°
2026-05-05 09:22 21.90779 -160.02156 2849 ft 253 kts 91°
2026-05-05 09:23 21.90761 -160.00903 2849 ft 253 kts 91°
2026-05-05 09:23 21.90734 -159.99009 2849 ft 254 kts 91°
2026-05-05 09:23 21.90706 -159.97111 2848 ft 253 kts 91°
2026-05-05 09:23 21.90668 -159.95218 2847 ft 253 kts 91°
2026-05-05 09:24 21.90619 -159.92707 2848 ft 253 kts 91°
2026-05-05 09:24 21.90586 -159.90812 2848 ft 253 kts 91°
2026-05-05 09:24 21.90556 -159.88922 2846 ft 253 kts 91°
2026-05-05 09:24 21.90529 -159.87026 2846 ft 253 kts 91°
2026-05-05 09:25 21.90511 -159.85742 2848 ft 253 kts 91°
2026-05-05 09:25 21.90485 -159.83843 2848 ft 253 kts 91°
2026-05-05 09:25 21.90463 -159.81949 2849 ft 253 kts 91°
2026-05-05 09:25 21.90435 -159.80078 2848 ft 253 kts 91°
2026-05-05 09:26 21.90406 -159.78156 2847 ft 253 kts 91°
2026-05-05 09:26 21.90377 -159.76263 2849 ft 253 kts 91°
2026-05-05 09:26 21.90351 -159.74396 2849 ft 253 kts 91°
2026-05-05 09:26 21.90325 -159.72499 2843 ft 253 kts 91°
2026-05-05 09:27 21.90299 -159.70603 2848 ft 253 kts 91°
2026-05-05 09:27 21.90272 -159.68710 2847 ft 253 kts 91°
2026-05-05 09:27 21.90242 -159.66816 2849 ft 253 kts 91°
2026-05-05 09:27 21.90213 -159.64920 2847 ft 252 kts 91°
2026-05-05 09:28 21.90184 -159.63027 2848 ft 253 kts 91°
2026-05-05 09:28 21.90155 -159.61132 2846 ft 253 kts 91°
2026-05-05 09:28 21.90128 -159.59237 2848 ft 253 kts 91°
2026-05-05 09:28 21.90100 -159.57341 2847 ft 253 kts 91°
2026-05-05 09:29 21.90071 -159.55460 2848 ft 253 kts 91°
2026-05-05 09:29 21.89916 -159.53580 2845 ft 253 kts 103°
2026-05-05 09:29 21.89312 -159.51803 2844 ft 252 kts 118°
2026-05-05 09:29 21.88444 -159.50163 2847 ft 252 kts 122°
2026-05-05 09:30 21.87533 -159.48556 2846 ft 252 kts 123°
2026-05-05 09:30 21.86615 -159.46953 2849 ft 252 kts 123°
2026-05-05 09:30 21.85695 -159.45350 2849 ft 251 kts 123°
2026-05-05 09:30 21.84776 -159.43751 2846 ft 251 kts 123°
2026-05-05 09:31 21.83856 -159.42148 2849 ft 251 kts 123°
2026-05-05 09:31 21.82935 -159.40548 2849 ft 251 kts 123°
2026-05-05 09:31 21.82014 -159.38950 2847 ft 251 kts 123°
2026-05-05 09:31 21.81093 -159.37349 2848 ft 251 kts 123°
2026-05-05 09:32 21.80171 -159.35750 2849 ft 251 kts 123°
2026-05-05 09:32 21.79249 -159.34152 2848 ft 251 kts 123°
2026-05-05 09:32 21.78327 -159.32550 2847 ft 252 kts 123°
2026-05-05 09:32 21.77406 -159.30951 2847 ft 251 kts 123°
2026-05-05 09:33 21.76484 -159.29353 2847 ft 251 kts 123°
2026-05-05 09:33 21.75563 -159.27758 2847 ft 251 kts 123°
2026-05-05 09:33 21.74641 -159.26158 2849 ft 252 kts 123°
2026-05-05 09:33 21.73719 -159.24557 2848 ft 251 kts 123°
2026-05-05 09:34 21.72797 -159.22955 2849 ft 252 kts 123°
2026-05-05 09:34 21.71877 -159.21361 2848 ft 252 kts 123°
2026-05-05 09:34 21.70955 -159.19760 2846 ft 251 kts 123°
2026-05-05 09:34 21.70033 -159.18165 2849 ft 251 kts 123°
2026-05-05 09:35 21.69123 -159.16586 2847 ft 252 kts 123°
2026-05-05 09:35 21.67266 -159.13396 2848 ft 251 kts 123°
2026-05-05 09:35 21.66343 -159.11805 2849 ft 252 kts 123°
2026-05-05 09:36 21.65419 -159.10207 2848 ft 252 kts 123°
2026-05-05 09:36 21.64493 -159.08612 2848 ft 251 kts 123°
2026-05-05 09:36 21.63567 -159.07015 2849 ft 252 kts 123°
2026-05-05 09:36 21.62642 -159.05418 2848 ft 252 kts 123°
2026-05-05 09:37 21.61717 -159.03824 2847 ft 252 kts 123°
2026-05-05 09:37 21.60792 -159.02226 2846 ft 251 kts 123°
2026-05-05 09:37 21.59866 -159.00633 2846 ft 251 kts 123°
2026-05-05 09:37 21.58935 -158.99040 2847 ft 251 kts 123°
2026-05-05 09:38 21.58009 -158.97446 2848 ft 252 kts 123°
2026-05-05 09:38 21.57085 -158.95852 2848 ft 252 kts 123°
2026-05-05 09:38 21.56160 -158.94256 2847 ft 251 kts 123°
2026-05-05 09:38 21.55237 -158.92667 2847 ft 252 kts 123°
2026-05-05 09:39 21.54309 -158.91071 2848 ft 252 kts 123°
2026-05-05 09:39 21.53380 -158.89479 2847 ft 251 kts 123°
2026-05-05 09:39 21.52453 -158.87886 2848 ft 251 kts 123°
2026-05-05 09:39 21.51527 -158.86296 2848 ft 252 kts 123°
2026-05-05 09:40 21.50601 -158.84705 2849 ft 251 kts 123°
2026-05-05 09:40 21.49671 -158.83113 2848 ft 252 kts 123°
2026-05-05 09:40 21.48744 -158.81518 2848 ft 252 kts 123°
2026-05-05 09:40 21.47818 -158.79925 2847 ft 252 kts 123°
2026-05-05 09:41 21.46891 -158.78332 2847 ft 251 kts 123°
2026-05-05 09:41 21.45975 -158.76756 2847 ft 251 kts 123°
2026-05-05 09:41 21.45049 -158.75168 2849 ft 251 kts 123°
2026-05-05 09:41 21.44126 -158.73576 2847 ft 252 kts 123°
2026-05-05 09:42 21.43199 -158.71982 2848 ft 252 kts 123°
2026-05-05 09:42 21.42270 -158.70392 2847 ft 251 kts 123°
2026-05-05 09:42 21.41343 -158.68797 2849 ft 252 kts 123°
2026-05-05 09:42 21.40411 -158.67205 2847 ft 252 kts 123°
2026-05-05 09:43 21.39484 -158.65613 2846 ft 252 kts 123°
2026-05-05 09:43 21.38559 -158.64023 2847 ft 251 kts 123°
2026-05-05 09:43 21.37630 -158.62430 2848 ft 252 kts 123°
2026-05-05 09:43 21.36700 -158.60839 2849 ft 251 kts 123°
2026-05-05 09:44 21.35776 -158.59254 2845 ft 246 kts 123°
2026-05-05 09:44 21.34901 -158.57753 2840 ft 232 kts 123°
2026-05-05 09:44 21.34046 -158.56301 2844 ft 229 kts 123°
2026-05-05 09:44 21.33199 -158.54843 2849 ft 230 kts 123°
2026-05-05 09:45 21.32351 -158.53384 2850 ft 231 kts 123°
2026-05-05 09:45 21.31499 -158.51928 2848 ft 230 kts 123°
2026-05-05 09:45 21.30649 -158.50471 2847 ft 231 kts 122°
2026-05-05 09:45 21.30047 -158.48884 2845 ft 232 kts 101°
2026-05-05 09:46 21.29822 -158.47173 2851 ft 232 kts 97°
2026-05-05 09:46 21.29631 -158.45456 2861 ft 232 kts 97°
2026-05-05 09:46 21.29441 -158.43735 2868 ft 232 kts 97°
2026-05-05 09:46 21.29248 -158.42019 2866 ft 232 kts 97°
2026-05-05 09:47 21.29061 -158.40301 2866 ft 232 kts 97°
2026-05-05 09:47 21.28867 -158.38583 2865 ft 231 kts 97°
2026-05-05 09:47 21.28678 -158.36885 2855 ft 221 kts 97°
2026-05-05 09:47 21.28503 -158.35330 2830 ft 203 kts 97°
2026-05-05 09:48 21.28340 -158.33861 2821 ft 200 kts 97°
2026-05-05 09:48 21.28179 -158.32384 2813 ft 200 kts 97°
2026-05-05 09:48 21.28014 -158.30905 2808 ft 200 kts 97°
2026-05-05 09:48 21.27852 -158.29425 2796 ft 200 kts 97°
2026-05-05 09:49 21.27689 -158.27928 2566 ft 205 kts 97°
2026-05-05 09:49 21.27527 -158.26443 2141 ft 194 kts 97°
2026-05-05 09:49 21.27370 -158.25013 1904 ft 192 kts 97°
2026-05-05 09:49 21.27213 -158.23582 1874 ft 195 kts 97°
2026-05-05 09:50 21.27058 -158.22128 1865 ft 197 kts 97°
2026-05-05 09:50 21.26897 -158.20667 1882 ft 196 kts 97°
2026-05-05 09:50 21.26740 -158.19240 1865 ft 184 kts 97°
2026-05-05 09:50 21.26595 -158.17906 1735 ft 178 kts 97°
2026-05-05 09:51 21.26445 -158.16542 1540 ft 178 kts 94°
2026-05-05 09:51 21.26534 -158.15327 1225 ft 150 kts 79°
2026-05-05 09:51 21.26721 -158.14236 1117 ft 150 kts 79°
2026-05-05 09:51 21.26934 -158.13152 1142 ft 145 kts 72°
2026-05-05 09:52 21.27304 -158.12156 1050 ft 145 kts 62°
2026-05-05 09:52 21.27827 -158.11192 783 ft 153 kts 55°
2026-05-05 09:52 21.28411 -158.10261 513 ft 142 kts 54°
2026-05-05 09:52 21.28930 -158.09453 323 ft 122 kts 53°
2026-05-05 09:53 21.29444 -158.08700 220 ft 128 kts 51°
2026-05-05 09:53 21.30000 -158.07920 65 ft 134 kts 52°
2026-05-05 09:53 21.30493 -158.07193 22 ft 105 kts 53°
2026-05-05 09:53 21.30736 -158.06826 28 ft 17 kts 54°
2026-05-05 09:54 21.30755 -158.06792 28 ft 0 kts 100°
2026-05-05 09:54 21.30750 -158.06788 29 ft 1 kts 171°
2026-05-05 09:54 21.30724 -158.06815 28 ft 9 kts 236°
2026-05-05 09:54 21.30671 -158.06903 27 ft 18 kts 236°
2026-05-05 09:55 21.30592 -158.07023 26 ft 21 kts 234°
2026-05-05 09:55 21.30505 -158.07154 24 ft 22 kts 231°
2026-05-05 09:55 21.30410 -158.07288 20 ft 23 kts 233°
2026-05-05 09:55 21.30323 -158.07319 20 ft 12 kts 150°
2026-05-05 09:56 21.30256 -158.07302 23 ft 1 kts 181°
2026-05-05 09:56 21.30226 -158.07276 21 ft 12 kts 141°
2026-05-05 09:56 21.30171 -158.07217 20 ft 7 kts 137°
2026-05-05 09:56 21.30127 -158.07195 19 ft 6 kts 200°
2026-05-05 09:57 21.30103 -158.07211 18 ft 7 kts 221°
2026-05-05 09:57 21.30096 -158.07219 18 ft 0 kts 237°